Patrick Air Force Base
KCOF : now visible

Airfield :











YOU CAN JOIN US ON...

 
LOGIN :

Register | Disclaimer

   EN    FR    IT 

 









Legend :    VFR   Marginal VFR   IFR   Intensive IFR   Very Intensive IFR
Visi :
Ceiling :
>= 8 km
>= 3000ft
5 to 8 km
1000 to 3000 ft
1500m to 5 km
500 to 1000 ft
800 to 1500m
200 to 500 ft
< 800m
< 200 ft
Symbols :   Thunderstorms  Fog  Heavy snow  Heavy precipitations  Wind > 20 kt






- Airport Elevation : 8 ft


KCOF - Patrick Air Force Base

CURRENT METAR :
  • 031800Z AUTO 12012KT 10SM -DZ FEW009 25/22 A3004 RMK AO2 DZE1758DZB00 SLP177

EXPIRED METARs :
  • 031756Z AUTO 12013KT 10SM -DZ FEW009 FEW014 25/23 A3004 RMK AO2 DZB24 SLP177 P0001 60001 T02470225 10270 20247
  • 031724Z AUTO 13012KT 10SM -DZ FEW007 26/23 A3005 RMK AO2 DZB24 SLP180
  • 031656Z AUTO 11011KT 10SM CLR 26/22 A3006 RMK AO2 SLP184 T02560223
  • 031556Z AUTO 12011KT 10SM FEW023 FEW200 27/22 A3007 RMK AO2 SLP187 T02700217

TAF TAF KCOF
Valid from the 03 at 18:00 until the 05 at 00:00 UTC


031800Z 0318/0424 09010G15KT 9999 VCSH SCT030 BKN050 BKN120 QNH3000INS
TEMPO 0318/0321 11015G20KT 4800 SHRA BKN020
BECMG 0400/0401 12009KT 9999 VCSH SCT030 SCT050 BKN150 QNH2998INS
TEMPO 0401/0406 12010G15KT 4800 -TSRA BKN015CB
BECMG 0411/0412 12012KT 9999 VCSH SCT020 BKN075 BKN120 QNH3000INS
BECMG 0418/0419 12009KT 9999 VCSH BKN020 BKN050 BKN120 QNH3000INS TX28/0320Z TN24/0410Z
KZMA FIR / North America



MET'MAP, your aeronautical weather chart ! - Copyright ORBIFLY December 2007 - Disclaimer

ORBIFLY MET'MAP TEAM :

Programming & Development : Alexandra Zaïnal
Concept & original design : Baudouin d'Aumeries
Assistance for programming : Marc-Olivier Méhu
Technical & hardware support : Manuel Goepfert

Contact : metmap@orbifly.com




SOURCES & CREDITS :

   NOAA       Earth
Advisory